createdAt,value
2023-01-10T00:02:22.946Z,5.73
2023-01-10T00:04:49.343Z,5.73
2023-01-10T00:07:15.563Z,5.72
2023-01-10T00:09:41.763Z,5.76
2023-01-10T00:12:07.976Z,5.76
2023-01-10T00:14:34.209Z,5.73
2023-01-10T00:17:03.365Z,5.72
2023-01-10T00:19:29.592Z,5.70
2023-01-10T00:21:55.809Z,5.74
2023-01-10T00:24:22.036Z,5.76
2023-01-10T00:26:48.494Z,5.76
2023-01-10T00:29:14.704Z,5.81
2023-01-10T00:31:41.009Z,5.85
2023-01-10T00:34:07.229Z,5.84
2023-01-10T00:36:33.445Z,5.84
2023-01-10T00:38:59.641Z,5.80
2023-01-10T00:41:25.858Z,5.87
2023-01-10T00:43:52.062Z,5.86
2023-01-10T00:46:18.304Z,5.82
2023-01-10T00:48:44.530Z,5.81
2023-01-10T00:51:10.744Z,5.82
2023-01-10T00:53:36.963Z,5.81
2023-01-10T00:56:03.185Z,5.82
2023-01-10T00:58:29.423Z,5.81
2023-01-10T01:00:55.685Z,5.78
2023-01-10T01:03:21.903Z,5.77
2023-01-10T01:05:48.122Z,5.78
2023-01-10T01:08:14.659Z,5.81
2023-01-10T01:10:40.869Z,5.82
2023-01-10T01:13:10.824Z,5.84
2023-01-10T01:15:37.131Z,5.90
2023-01-10T01:18:03.491Z,5.89
2023-01-10T01:20:29.732Z,5.85
2023-01-10T01:22:55.934Z,5.86
2023-01-10T01:25:22.139Z,5.87
2023-01-10T01:27:48.354Z,5.82
2023-01-10T01:30:14.665Z,5.80
2023-01-10T01:32:40.893Z,5.83
2023-01-10T01:35:07.756Z,5.87
2023-01-10T01:37:34.114Z,5.85
2023-01-10T01:40:00.373Z,5.88
2023-01-10T01:42:30.556Z,5.89
2023-01-10T01:45:15.744Z,5.89
2023-01-10T01:47:46.349Z,5.90
2023-01-10T01:50:22.902Z,5.90
2023-01-10T01:52:49.182Z,5.89
2023-01-10T01:55:15.375Z,5.90
2023-01-10T01:57:41.628Z,5.90
2023-01-10T02:00:08.066Z,5.84
2023-01-10T02:02:35.788Z,5.76
2023-01-10T02:05:03.206Z,5.65
2023-01-10T02:07:30.567Z,5.59
2023-01-10T02:10:06.728Z,5.56
2023-01-10T02:12:33.004Z,5.61
2023-01-10T02:14:59.211Z,5.58
2023-01-10T02:17:25.427Z,5.64
2023-01-10T02:19:55.725Z,5.63
2023-01-10T02:22:40.827Z,5.66
2023-01-10T02:25:17.286Z,5.72
2023-01-10T02:27:55.743Z,5.72
2023-01-10T02:30:21.898Z,5.74
2023-01-10T02:33:00.557Z,5.79
2023-01-10T02:35:53.106Z,5.80
2023-01-10T02:38:23.303Z,5.83
2023-01-10T02:41:16.013Z,5.83
2023-01-10T02:43:45.435Z,5.85
2023-01-10T02:46:15.772Z,5.84
2023-01-10T02:48:41.995Z,5.84
2023-01-10T02:51:16.060Z,5.84
2023-01-10T02:53:44.260Z,5.85
2023-01-10T02:56:29.535Z,5.88
2023-01-10T02:59:00.579Z,5.90
2023-01-10T03:01:36.135Z,5.90
2023-01-10T03:04:21.182Z,5.91
2023-01-10T03:07:07.625Z,5.94
2023-01-10T03:09:52.393Z,5.95
2023-01-10T03:12:21.207Z,5.97
2023-01-10T03:14:47.428Z,5.96
2023-01-10T03:17:13.624Z,5.95
2023-01-10T03:19:43.539Z,6.03
2023-01-10T03:22:10.206Z,6.03
2023-01-10T03:24:38.115Z,6.06
2023-01-10T03:27:08.980Z,6.06
2023-01-10T03:29:39.129Z,6.11
2023-01-10T03:32:05.678Z,6.11
2023-01-10T03:34:31.966Z,6.12
2023-01-10T03:37:04.594Z,6.14
2023-01-10T03:39:30.755Z,6.16
2023-01-10T03:42:06.776Z,6.17
2023-01-10T03:44:34.857Z,6.17
2023-01-10T03:47:01.037Z,6.19
2023-01-10T03:49:27.325Z,6.18
2023-01-10T03:51:53.530Z,6.13
2023-01-10T03:54:19.742Z,6.14
2023-01-10T03:56:46.983Z,6.11
2023-01-10T03:59:13.209Z,6.12
2023-01-10T04:01:39.555Z,6.15
2023-01-10T04:04:05.896Z,6.11
2023-01-10T04:06:32.109Z,6.12
2023-01-10T04:08:58.344Z,6.12
2023-01-10T04:11:24.534Z,6.08
2023-01-10T04:13:50.743Z,6.12
2023-01-10T04:16:16.986Z,6.09
2023-01-10T04:18:43.715Z,6.07
2023-01-10T04:21:10.008Z,6.07
2023-01-10T04:23:36.210Z,6.02
2023-01-10T04:26:02.435Z,6.05
2023-01-10T04:28:28.679Z,6.00
2023-01-10T04:30:54.893Z,6.01
2023-01-10T04:33:21.099Z,6.02
2023-01-10T04:35:47.998Z,5.99
2023-01-10T04:38:14.207Z,5.97
2023-01-10T04:40:40.419Z,6.03
2023-01-10T04:43:06.620Z,6.03
2023-01-10T04:45:32.870Z,6.05
2023-01-10T04:47:59.097Z,6.01
2023-01-10T04:50:25.472Z,6.03
2023-01-10T04:52:51.682Z,6.02
2023-01-10T04:55:17.928Z,5.98
2023-01-10T04:57:44.154Z,5.98
2023-01-10T05:00:10.703Z,5.92
2023-01-10T05:02:37.046Z,5.92
2023-01-10T05:05:03.341Z,5.88
2023-01-10T05:07:29.542Z,5.89
2023-01-10T05:09:55.757Z,5.92
2023-01-10T05:12:21.954Z,5.89
2023-01-10T05:14:48.157Z,5.92
2023-01-10T05:17:14.364Z,5.89
2023-01-10T05:19:40.588Z,5.89
2023-01-10T05:22:06.817Z,5.97
2023-01-10T05:24:33.043Z,5.89
2023-01-10T05:26:59.238Z,5.78
2023-01-10T05:29:25.429Z,5.64
2023-01-10T05:31:51.787Z,5.56
2023-01-10T05:34:18.014Z,5.54
2023-01-10T05:36:44.230Z,5.51
2023-01-10T05:39:10.443Z,5.48
2023-01-10T05:41:36.658Z,5.45
2023-01-10T05:44:02.854Z,5.52
2023-01-10T05:46:29.072Z,5.56
2023-01-10T05:48:55.276Z,5.57
2023-01-10T05:51:21.495Z,5.61
2023-01-10T05:53:48.534Z,5.63
2023-01-10T05:56:15.820Z,5.68
2023-01-10T05:58:42.033Z,5.72
2023-01-10T06:01:08.372Z,5.73
2023-01-10T06:03:34.607Z,5.74
2023-01-10T06:06:00.827Z,5.78
2023-01-10T06:08:27.032Z,5.81
2023-01-10T06:10:53.276Z,5.80
2023-01-10T06:13:19.493Z,5.84
2023-01-10T06:15:45.767Z,5.87
2023-01-10T06:18:12.533Z,5.89
2023-01-10T06:20:39.176Z,5.92
2023-01-10T06:23:05.381Z,5.89
2023-01-10T06:25:35.118Z,5.92
2023-01-10T06:28:01.336Z,5.92
2023-01-10T06:30:27.550Z,5.95
2023-01-10T06:32:53.759Z,5.92
2023-01-10T06:35:19.998Z,5.92
2023-01-10T06:37:46.218Z,5.91
2023-01-10T06:40:12.439Z,5.90
2023-01-10T06:42:39.732Z,5.90
2023-01-10T06:45:06.092Z,5.89
2023-01-10T06:47:32.303Z,5.89
2023-01-10T06:49:58.507Z,5.89
2023-01-10T06:52:24.731Z,5.87
2023-01-10T06:54:50.932Z,5.87
2023-01-10T06:57:17.158Z,5.86
2023-01-10T06:59:43.386Z,5.86
2023-01-10T07:02:10.240Z,5.90
2023-01-10T07:04:36.482Z,5.82
2023-01-10T07:07:02.693Z,5.86
2023-01-10T07:09:28.923Z,5.87
2023-01-10T07:11:55.159Z,5.85
2023-01-10T07:14:21.380Z,5.85
2023-01-10T07:16:47.605Z,5.87
2023-01-10T07:19:13.808Z,5.85
2023-01-10T07:21:40.020Z,5.84
2023-01-10T07:24:06.512Z,5.81
2023-01-10T07:26:32.717Z,5.80
2023-01-10T07:28:58.913Z,5.77
2023-01-10T07:31:25.179Z,5.76
2023-01-10T07:33:51.601Z,5.74
2023-01-10T07:36:17.819Z,5.74
2023-01-10T07:38:44.036Z,5.73
2023-01-10T07:41:10.259Z,5.70
2023-01-10T07:43:36.469Z,5.73
2023-01-10T07:46:03.253Z,5.74
2023-01-10T07:48:29.538Z,5.75
2023-01-10T07:50:59.326Z,5.75
2023-01-10T07:53:25.876Z,5.75
2023-01-10T07:55:52.119Z,5.77
2023-01-10T07:58:18.355Z,5.77
2023-01-10T08:00:44.587Z,5.72
2023-01-10T08:03:10.925Z,5.67
2023-01-10T08:05:37.163Z,5.67
2023-01-10T08:08:04.094Z,5.69
2023-01-10T08:10:30.299Z,5.73
2023-01-10T08:12:57.810Z,5.76
2023-01-10T08:15:25.759Z,5.76
2023-01-10T08:17:52.003Z,5.83
2023-01-10T08:20:18.218Z,5.85
2023-01-10T08:22:44.447Z,5.85
2023-01-10T08:25:10.725Z,5.88
2023-01-10T08:27:37.007Z,5.89
2023-01-10T08:30:04.134Z,5.88
2023-01-10T08:32:30.358Z,5.94
2023-01-10T08:34:56.583Z,5.97
2023-01-10T08:37:22.785Z,5.86
2023-01-10T08:39:48.981Z,5.82
2023-01-10T08:42:15.214Z,5.80
2023-01-10T08:44:41.428Z,5.75
2023-01-10T08:47:07.650Z,5.74
2023-01-10T08:49:33.889Z,5.82
2023-01-10T08:52:00.936Z,5.84
2023-01-10T08:54:27.144Z,5.86
2023-01-10T08:56:53.363Z,5.88
2023-01-10T08:59:19.563Z,5.92
2023-01-10T09:01:45.844Z,5.93
2023-01-10T09:04:12.127Z,5.85
2023-01-10T09:06:38.357Z,5.85
2023-01-10T09:09:04.674Z,5.84
2023-01-10T09:11:30.895Z,5.76
2023-01-10T09:13:57.113Z,5.70
2023-01-10T09:16:23.389Z,5.68
2023-01-10T09:18:49.669Z,5.72
2023-01-10T09:21:15.871Z,5.81
2023-01-10T09:23:42.095Z,5.86
2023-01-10T09:26:08.309Z,5.82
2023-01-10T09:28:34.525Z,5.87
2023-01-10T09:31:00.812Z,6.06
2023-01-10T09:33:35.011Z,6.11
2023-01-10T09:36:09.627Z,6.12
2023-01-10T09:38:36.438Z,6.11
2023-01-10T09:41:21.376Z,6.16
2023-01-10T09:43:53.451Z,6.20
2023-01-10T09:46:25.795Z,6.21
2023-01-10T09:49:03.895Z,6.24
2023-01-10T09:51:35.736Z,6.22
2023-01-10T09:54:11.196Z,6.24
2023-01-10T09:56:38.465Z,6.39
2023-01-10T09:59:04.708Z,6.39
2023-01-10T10:01:32.909Z,6.25
2023-01-10T10:04:21.033Z,6.31
2023-01-10T10:06:50.633Z,6.36
2023-01-10T10:09:17.392Z,6.42
2023-01-10T10:12:03.853Z,6.42
2023-01-10T10:14:48.851Z,6.44
2023-01-10T10:17:25.141Z,6.46
2023-01-10T10:20:03.040Z,6.37
2023-01-10T10:22:45.147Z,6.39
2023-01-10T10:25:11.308Z,6.34
2023-01-10T10:27:55.945Z,6.29
2023-01-10T10:30:27.526Z,6.26
2023-01-10T10:32:53.702Z,6.28
2023-01-10T10:35:27.519Z,6.29
2023-01-10T10:37:54.102Z,6.32
2023-01-10T10:40:21.598Z,6.33
2023-01-10T10:42:48.500Z,6.36
2023-01-10T10:45:20.845Z,6.36
2023-01-10T10:47:49.646Z,6.30
2023-01-10T10:50:16.014Z,6.31
2023-01-10T10:52:42.376Z,6.34
2023-01-10T10:55:12.843Z,6.44
2023-01-10T10:57:43.476Z,6.52
2023-01-10T11:00:18.101Z,6.60
2023-01-10T11:02:49.537Z,6.51
2023-01-10T11:05:23.890Z,6.58
2023-01-10T11:07:50.087Z,6.46
2023-01-10T11:10:25.306Z,6.55
2023-01-10T11:12:51.520Z,6.55
2023-01-10T11:15:36.456Z,6.55
2023-01-10T11:18:21.743Z,6.50
2023-01-10T11:21:00.761Z,6.50
2023-01-10T11:23:37.448Z,6.52
2023-01-10T11:26:04.504Z,6.47
2023-01-10T11:28:31.223Z,6.55
2023-01-10T11:30:57.442Z,6.54
2023-01-10T11:33:26.078Z,6.48
2023-01-10T11:36:05.718Z,6.50
2023-01-10T11:38:32.473Z,6.58
2023-01-10T11:41:03.048Z,6.61
2023-01-10T11:43:33.521Z,6.68
2023-01-10T11:46:00.971Z,6.67
2023-01-10T11:48:56.240Z,6.62
2023-01-10T11:51:23.128Z,6.67
2023-01-10T11:53:49.603Z,6.65
2023-01-10T11:56:23.250Z,6.64
2023-01-10T11:58:49.467Z,6.61
2023-01-10T12:01:31.007Z,6.59
2023-01-10T12:03:57.225Z,6.63
2023-01-10T12:06:23.433Z,6.63
2023-01-10T12:08:49.687Z,6.59
2023-01-10T12:11:31.842Z,6.61
2023-01-10T12:13:58.719Z,6.58
2023-01-10T12:16:24.934Z,6.52
2023-01-10T12:18:51.858Z,6.52
2023-01-10T12:21:23.174Z,6.53
2023-01-10T12:23:49.403Z,6.54
2023-01-10T12:26:15.596Z,6.62
2023-01-10T12:28:47.902Z,6.58
2023-01-10T12:31:14.276Z,6.58
2023-01-10T12:33:47.538Z,6.54
2023-01-10T12:36:23.663Z,6.55
2023-01-10T12:39:02.023Z,6.62
2023-01-10T12:41:35.182Z,6.57
2023-01-10T12:44:01.823Z,6.58
2023-01-10T12:47:05.164Z,6.66
2023-01-10T12:49:25.831Z,6.69
2023-01-10T12:51:52.719Z,6.77
2023-01-10T12:54:19.735Z,6.80
2023-01-10T12:56:45.957Z,6.79
2023-01-10T12:59:37.653Z,6.79
2023-01-10T13:02:10.094Z,6.83
2023-01-10T13:04:36.448Z,6.81
2023-01-10T13:07:02.660Z,6.79
2023-01-10T13:09:28.956Z,6.80
2023-01-10T13:11:57.046Z,6.79
2023-01-10T13:14:25.098Z,6.76
2023-01-10T13:16:57.224Z,6.71
2023-01-10T13:19:24.644Z,6.68
2023-01-10T13:21:50.897Z,6.69
2023-01-10T13:24:26.366Z,6.71
2023-01-10T13:26:53.572Z,6.75
2023-01-10T13:29:20.848Z,6.71
2023-01-10T13:31:49.034Z,6.67
2023-01-10T13:34:16.077Z,6.67
2023-01-10T13:36:53.750Z,6.67
2023-01-10T13:39:34.966Z,6.67
2023-01-10T13:42:01.128Z,6.67
2023-01-10T13:44:27.325Z,6.65
2023-01-10T13:46:53.543Z,6.62
2023-01-10T13:49:26.805Z,6.64
2023-01-10T13:52:11.864Z,6.63
2023-01-10T13:54:38.075Z,6.58
2023-01-10T13:57:24.260Z,6.56
2023-01-10T14:00:00.712Z,6.58
2023-01-10T14:02:26.987Z,6.59
2023-01-10T14:04:53.487Z,6.60
2023-01-10T14:07:33.327Z,6.59
2023-01-10T14:10:04.888Z,6.63
2023-01-10T14:12:32.513Z,6.63
2023-01-10T14:14:59.842Z,6.60
2023-01-10T14:17:29.723Z,6.57
2023-01-10T14:20:03.823Z,6.55
2023-01-10T14:22:30.808Z,6.52
2023-01-10T14:24:57.084Z,6.51
2023-01-10T14:27:23.295Z,6.53
2023-01-10T14:29:50.986Z,6.48
2023-01-10T14:32:36.871Z,6.47
2023-01-10T14:35:03.777Z,6.48
2023-01-10T14:37:42.162Z,6.48
2023-01-10T14:40:24.375Z,6.48
2023-01-10T14:42:50.586Z,6.46
2023-01-10T14:45:38.034Z,6.43
2023-01-10T14:48:23.120Z,6.41
2023-01-10T14:50:49.319Z,6.48
2023-01-10T14:53:25.453Z,6.52
2023-01-10T14:55:51.662Z,6.53
2023-01-10T14:58:17.884Z,6.49
2023-01-10T15:00:44.330Z,6.45
2023-01-10T15:03:14.932Z,6.41
2023-01-10T15:05:45.096Z,6.37
2023-01-10T15:08:20.267Z,6.40
2023-01-10T15:10:46.470Z,6.34
2023-01-10T15:13:13.682Z,6.33
2023-01-10T15:15:39.892Z,6.33
2023-01-10T15:18:24.853Z,6.43
2023-01-10T15:20:51.067Z,6.36
2023-01-10T15:23:17.303Z,6.32
2023-01-10T15:25:43.525Z,6.31
2023-01-10T15:28:13.778Z,6.35
2023-01-10T15:30:40.067Z,6.37
2023-01-10T15:33:07.593Z,6.30
2023-01-10T15:35:36.498Z,6.31
2023-01-10T15:38:16.404Z,6.27
2023-01-10T15:40:42.617Z,6.25
2023-01-10T15:43:10.490Z,6.30
2023-01-10T15:45:36.830Z,6.40
2023-01-10T15:48:03.238Z,6.36
2023-01-10T15:50:33.148Z,6.40
2023-01-10T15:53:00.014Z,6.33
2023-01-10T15:55:44.993Z,6.32
2023-01-10T15:58:27.557Z,6.28
2023-01-10T16:00:54.174Z,6.23
2023-01-10T16:03:22.156Z,6.22
2023-01-10T16:05:49.496Z,6.22
2023-01-10T16:08:15.708Z,6.21
2023-01-10T16:10:41.928Z,6.23
2023-01-10T16:13:08.704Z,6.25
2023-01-10T16:15:36.151Z,6.29
2023-01-10T16:18:02.374Z,6.31
2023-01-10T16:20:32.390Z,6.34
2023-01-10T16:22:58.601Z,6.29
2023-01-10T16:25:31.580Z,6.30
2023-01-10T16:27:58.018Z,6.32
2023-01-10T16:30:33.629Z,6.26
2023-01-10T16:33:00.228Z,6.29
2023-01-10T16:35:26.506Z,6.33
2023-01-10T16:37:53.769Z,6.30
2023-01-10T16:40:34.385Z,6.30
2023-01-10T16:43:01.839Z,6.34
2023-01-10T16:45:28.075Z,6.25
2023-01-10T16:47:54.342Z,6.25
2023-01-10T16:50:20.562Z,6.22
2023-01-10T16:52:46.787Z,6.17
2023-01-10T16:55:16.639Z,6.28
2023-01-10T16:57:42.856Z,6.31
2023-01-10T17:00:09.435Z,6.21
2023-01-10T17:02:35.627Z,6.27
2023-01-10T17:05:01.837Z,6.23
2023-01-10T17:07:28.030Z,6.26
2023-01-10T17:09:54.251Z,6.24
2023-01-10T17:12:20.465Z,6.22
2023-01-10T17:14:46.678Z,6.23
2023-01-10T17:17:12.890Z,6.21
2023-01-10T17:19:39.093Z,6.22
2023-01-10T17:22:05.293Z,6.24
2023-01-10T17:24:31.509Z,6.26
2023-01-10T17:26:57.721Z,6.22
2023-01-10T17:29:23.928Z,6.23
2023-01-10T17:31:50.232Z,6.21
2023-01-10T17:34:16.461Z,6.18
2023-01-10T17:36:42.687Z,6.23
2023-01-10T17:39:08.901Z,6.22
2023-01-10T17:41:35.135Z,6.30
2023-01-10T17:44:01.493Z,6.29
2023-01-10T17:46:27.700Z,6.23
2023-01-10T17:48:53.900Z,6.28
2023-01-10T17:51:20.117Z,6.25
2023-01-10T17:53:46.325Z,6.25
2023-01-10T17:56:12.559Z,6.24
2023-01-10T17:58:38.754Z,6.20
2023-01-10T18:01:05.042Z,6.16
2023-01-10T18:03:31.315Z,6.11
2023-01-10T18:05:57.977Z,6.06
2023-01-10T18:08:24.258Z,6.00
2023-01-10T18:10:50.508Z,5.94
2023-01-10T18:13:17.072Z,5.95
2023-01-10T18:15:44.065Z,5.88
2023-01-10T18:18:10.297Z,5.97
2023-01-10T18:20:39.066Z,5.87
2023-01-10T18:23:05.266Z,5.82
2023-01-10T18:25:31.487Z,5.83
2023-01-10T18:27:57.701Z,5.83
2023-01-10T18:30:23.904Z,5.83
2023-01-10T18:32:50.415Z,5.80
2023-01-10T18:35:16.672Z,5.86
2023-01-10T18:37:42.947Z,5.73
2023-01-10T18:40:09.432Z,5.71
2023-01-10T18:42:35.655Z,5.69
2023-01-10T18:45:01.964Z,5.63
2023-01-10T18:47:28.217Z,5.61
2023-01-10T18:49:54.419Z,5.53
2023-01-10T18:52:20.635Z,5.58
2023-01-10T18:54:47.011Z,5.64
2023-01-10T18:57:13.428Z,5.62
2023-01-10T18:59:39.657Z,5.61
2023-01-10T19:02:12.945Z,5.64
2023-01-10T19:04:39.233Z,5.63
2023-01-10T19:07:05.514Z,5.58
2023-01-10T19:09:31.731Z,5.55
2023-01-10T19:11:58.213Z,5.55
2023-01-10T19:14:24.413Z,5.53
2023-01-10T19:16:50.626Z,5.55
2023-01-10T19:19:16.831Z,5.55
2023-01-10T19:21:43.038Z,5.54
2023-01-10T19:24:27.966Z,5.49
2023-01-10T19:26:54.455Z,5.46
2023-01-10T19:29:20.692Z,5.44
2023-01-10T19:31:46.914Z,5.42
2023-01-10T19:34:13.149Z,5.44
2023-01-10T19:36:39.379Z,5.47
2023-01-10T19:39:05.615Z,5.48
2023-01-10T19:41:31.857Z,5.53
2023-01-10T19:43:58.497Z,5.59
2023-01-10T19:46:24.832Z,5.60
2023-01-10T19:48:51.065Z,5.60
2023-01-10T19:51:17.268Z,5.61
2023-01-10T19:53:44.186Z,5.67
2023-01-10T19:56:10.474Z,5.68
2023-01-10T19:58:36.923Z,5.69
2023-01-10T20:01:09.520Z,5.66
2023-01-10T20:03:35.793Z,5.71
2023-01-10T20:06:02.868Z,5.72
2023-01-10T20:08:29.083Z,5.66
2023-01-10T20:10:55.284Z,5.74
2023-01-10T20:13:21.498Z,5.73
2023-01-10T20:15:47.746Z,5.70
2023-01-10T20:18:13.969Z,5.72
2023-01-10T20:20:41.583Z,5.70
2023-01-10T20:23:07.850Z,5.68
2023-01-10T20:25:34.053Z,5.70
2023-01-10T20:28:00.283Z,5.70
2023-01-10T20:30:26.509Z,5.71
2023-01-10T20:32:52.730Z,5.69
2023-01-10T20:35:18.936Z,5.73
2023-01-10T20:37:45.142Z,5.73
2023-01-10T20:40:11.525Z,5.72
2023-01-10T20:42:39.543Z,5.74
2023-01-10T20:45:07.167Z,5.67
2023-01-10T20:47:33.413Z,5.68
2023-01-10T20:49:59.651Z,5.69
2023-01-10T20:52:25.882Z,5.75
2023-01-10T20:54:52.081Z,5.66
2023-01-10T20:57:18.299Z,5.80
2023-01-10T20:59:44.496Z,5.73
2023-01-10T21:02:10.836Z,5.73
2023-01-10T21:04:37.102Z,5.71
2023-01-10T21:07:03.406Z,5.68
2023-01-10T21:09:29.643Z,5.69
2023-01-10T21:12:07.392Z,5.70
2023-01-10T21:14:39.923Z,5.71
2023-01-10T21:17:06.130Z,5.69
2023-01-10T21:19:32.334Z,5.72
2023-01-10T21:21:58.532Z,5.73
2023-01-10T21:24:24.761Z,5.76
2023-01-10T21:26:50.980Z,5.76
2023-01-10T21:29:17.243Z,5.70
2023-01-10T21:31:43.509Z,5.68
2023-01-10T21:34:09.780Z,5.61
2023-01-10T21:36:36.004Z,5.64
2023-01-10T21:39:02.214Z,5.69
2023-01-10T21:41:29.105Z,5.71
2023-01-10T21:43:55.352Z,5.79
2023-01-10T21:46:21.600Z,5.71
2023-01-10T21:48:47.830Z,5.67
2023-01-10T21:51:14.026Z,5.73
2023-01-10T21:53:40.235Z,5.72
2023-01-10T21:56:06.614Z,5.73
2023-01-10T21:58:32.821Z,5.75
2023-01-10T22:00:59.159Z,5.75
2023-01-10T22:03:25.500Z,5.68
2023-01-10T22:05:51.735Z,5.71
2023-01-10T22:08:17.946Z,5.74
2023-01-10T22:10:44.152Z,5.69
2023-01-10T22:13:10.344Z,5.70
2023-01-10T22:15:36.560Z,5.76
2023-01-10T22:18:02.781Z,5.76
2023-01-10T22:20:28.995Z,5.80
2023-01-10T22:22:55.193Z,5.80
2023-01-10T22:25:21.407Z,5.83
2023-01-10T22:27:47.634Z,5.81
2023-01-10T22:30:13.846Z,5.81
2023-01-10T22:32:40.044Z,5.76
2023-01-10T22:35:06.332Z,5.80
2023-01-10T22:37:32.535Z,5.83
2023-01-10T22:39:58.741Z,5.83
2023-01-10T22:42:24.941Z,5.83
2023-01-10T22:44:51.151Z,5.76
2023-01-10T22:47:17.361Z,5.75
2023-01-10T22:49:43.562Z,5.76
2023-01-10T22:52:09.760Z,5.77
2023-01-10T22:54:35.985Z,5.79
2023-01-10T22:57:02.187Z,5.81
2023-01-10T22:59:28.427Z,5.74
2023-01-10T23:01:54.621Z,5.75
2023-01-10T23:04:20.936Z,5.67
2023-01-10T23:06:47.209Z,5.72
2023-01-10T23:09:13.433Z,5.75
2023-01-10T23:11:39.637Z,5.64
2023-01-10T23:14:05.848Z,5.60
2023-01-10T23:16:32.123Z,5.52
2023-01-10T23:18:58.449Z,5.57
2023-01-10T23:21:24.995Z,5.54
2023-01-10T23:23:51.213Z,5.53
2023-01-10T23:26:17.565Z,5.47
2023-01-10T23:28:44.824Z,5.41
2023-01-10T23:31:11.123Z,5.45
2023-01-10T23:33:37.325Z,5.45
2023-01-10T23:36:03.713Z,5.41
2023-01-10T23:38:29.942Z,5.38
2023-01-10T23:40:56.165Z,5.33
2023-01-10T23:43:22.502Z,5.30
2023-01-10T23:45:48.775Z,5.30
2023-01-10T23:48:15.108Z,5.30
2023-01-10T23:50:41.345Z,5.27
2023-01-10T23:53:07.552Z,5.23
2023-01-10T23:55:33.757Z,5.23
2023-01-10T23:58:00.037Z,5.23
